Time;durP1;ratioP1;P1;durP2;ratioP2;P2;SDS_P1;SDS_P2;PMS_P1;PMS_P2;Temp;Humidity;BMP_temperature;BMP_pressure;BME280_temperature;BME280_humidity;BME280_pressure;Samples;Min_cycle;Max_cycle;Signal;HPM_P1;HPM_P2
2020/12/03 00:00:59;;;;;;;66.20;32.53;;;;;;;-1.29;65.75;95575.47;4993713;28;20202;-62
2020/12/03 00:03:32;;;;;;;51.72;26.55;;;;;;;-1.25;65.55;95580.13;4992322;28;20631;-68
2020/12/03 00:06:04;;;;;;;46.55;25.27;;;;;;;-1.44;65.68;95552.22;4992998;28;20294;-64
2020/12/03 00:08:34;;;;;;;46.22;24.27;;;;;;;-1.18;65.46;95578.50;4992156;28;20689;-71
2020/12/03 00:11:01;;;;;;;49.28;26.65;;;;;;;-1.16;65.62;95581.69;4992905;28;20206;-63
2020/12/03 00:13:30;;;;;;;63.58;31.45;;;;;;;-1.09;64.95;95577.50;4992249;28;20265;-64
2020/12/03 00:15:58;;;;;;;62.03;32.90;;;;;;;-1.02;64.69;95581.97;4992966;28;20206;-63
2020/12/03 00:18:27;;;;;;;66.05;33.13;;;;;;;-1.60;66.41;95577.97;4992299;28;20206;-68
2020/12/03 00:20:55;;;;;;;68.57;36.63;;;;;;;-1.66;66.74;95588.91;4992482;28;20608;-68
2020/12/03 00:23:22;;;;;;;99.75;48.78;;;;;;;-1.79;66.76;95586.06;4991971;28;20622;-65
2020/12/03 00:25:51;;;;;;;99.05;51.17;;;;;;;-1.83;66.99;95597.63;4992279;28;20206;-66
2020/12/03 00:28:17;;;;;;;100.25;49.58;;;;;;;-1.95;67.24;95588.63;4991720;28;20242;-65
2020/12/03 00:30:45;;;;;;;98.97;49.22;;;;;;;-1.72;66.86;95589.56;4992057;28;20202;-64
2020/12/03 00:33:17;;;;;;;63.65;33.20;;;;;;;-1.55;66.82;95590.34;4991851;28;21006;-68
2020/12/03 00:35:46;;;;;;;67.15;34.17;;;;;;;-1.72;66.99;95594.72;4992558;28;20197;-64
2020/12/03 00:38:13;;;;;;;72.20;35.85;;;;;;;-1.78;67.31;95595.34;4991667;28;20212;-63
2020/12/03 00:40:39;;;;;;;59.60;31.73;;;;;;;-1.82;67.26;95594.06;4992211;28;20621;-64
2020/12/03 00:43:06;;;;;;;68.55;37.10;;;;;;;-1.72;67.01;95591.34;4992038;28;20201;-67
2020/12/03 00:45:32;;;;;;;75.32;37.15;;;;;;;-1.72;66.51;95584.44;4992110;28;20203;-64
2020/12/03 00:47:59;;;;;;;71.28;34.50;;;;;;;-1.85;66.91;95586.69;4992100;28;20309;-68
2020/12/03 00:50:26;;;;;;;49.10;26.20;;;;;;;-1.70;66.89;95592.78;4974153;28;20284;-63
2020/12/03 00:52:52;;;;;;;43.55;23.17;;;;;;;-1.62;66.50;95567.06;4992096;28;20294;-63
2020/12/03 00:55:19;;;;;;;56.22;28.60;;;;;;;-1.58;66.04;95586.31;4973996;28;20229;-65
2020/12/03 00:57:46;;;;;;;58.55;31.10;;;;;;;-1.75;65.94;95591.66;4974339;28;20648;-68
2020/12/03 01:00:14;;;;;;;65.55;31.20;;;;;;;-1.71;66.45;95586.03;4973705;28;20210;-69
2020/12/03 01:02:41;;;;;;;54.20;27.52;;;;;;;-1.73;66.86;95585.38;4991967;28;20222;-64
2020/12/03 01:05:09;;;;;;;63.35;32.90;;;;;;;-1.74;66.82;95586.38;4991579;28;20232;-70
2020/12/03 01:07:36;;;;;;;70.13;36.40;;;;;;;-1.82;66.96;95578.66;4991423;28;20254;-66
2020/12/03 01:10:05;;;;;;;67.45;35.30;;;;;;;-1.62;66.50;95574.75;4990651;28;20699;-66
2020/12/03 01:12:32;;;;;;;68.03;35.35;;;;;;;-1.45;66.15;95566.06;4991638;28;20201;-66
2020/12/03 01:14:58;;;;;;;72.22;35.63;;;;;;;-1.47;66.23;95578.25;4991238;28;20202;-66
2020/12/03 01:17:25;;;;;;;70.78;35.22;;;;;;;-1.52;66.16;95565.13;4992808;28;20713;-66
2020/12/03 01:19:51;;;;;;;72.32;35.95;;;;;;;-1.35;65.41;95558.94;4994087;28;20249;-67
2020/12/03 01:22:18;;;;;;;62.53;32.58;;;;;;;-1.28;65.58;95562.44;4974423;28;20195;-61
2020/12/03 01:24:44;;;;;;;63.53;32.30;;;;;;;-1.30;65.50;95563.59;4990854;28;20219;-63
2020/12/03 01:27:11;;;;;;;70.10;35.15;;;;;;;-1.73;65.59;95561.47;4991580;28;20221;-66
2020/12/03 01:29:39;;;;;;;78.38;38.20;;;;;;;-2.11;65.90;95545.81;4990571;28;20625;-65
2020/12/03 01:32:06;;;;;;;78.32;38.20;;;;;;;-2.27;67.08;95570.66;4991466;28;20202;-63
2020/12/03 01:34:33;;;;;;;76.38;38.40;;;;;;;-2.29;67.68;95564.91;4990659;28;20294;-67
2020/12/03 01:36:59;;;;;;;79.22;39.42;;;;;;;-2.32;68.17;95560.88;4991238;28;20191;-69
2020/12/03 01:39:26;;;;;;;89.63;40.95;;;;;;;-2.42;68.68;95564.56;4990575;28;20225;-67
2020/12/03 01:41:53;;;;;;;85.03;40.83;;;;;;;-2.50;69.35;95556.88;4991006;28;20198;-66
2020/12/03 01:44:37;;;;;;;81.03;39.58;;;;;;;-2.27;68.26;95552.72;4990767;28;20234;-65
2020/12/03 01:47:09;;;;;;;73.95;37.85;;;;;;;-2.01;67.78;95552.53;4993761;28;20308;-69
2020/12/03 01:49:36;;;;;;;77.28;38.78;;;;;;;-2.19;67.59;95552.72;4996464;28;20202;-64
2020/12/03 01:52:03;;;;;;;80.00;39.25;;;;;;;-2.16;67.96;95544.69;5001021;28;20322;-66
2020/12/03 01:54:30;;;;;;;79.65;39.25;;;;;;;-2.33;68.63;95549.03;4990422;28;20199;-66
2020/12/03 01:57:16;;;;;;;75.88;38.97;;;;;;;-2.20;68.44;95541.63;4990674;28;20202;-63
2020/12/03 01:59:50;;;;;;;75.03;38.08;;;;;;;-2.41;68.55;95543.09;4989972;28;20281;-64
2020/12/03 02:02:17;;;;;;;79.72;38.50;;;;;;;-2.08;68.69;95537.75;4990728;28;20556;-65
2020/12/03 02:05:26;;;;;;;81.82;39.85;;;;;;;-1.87;67.58;95528.75;4990638;28;20202;-66
2020/12/03 02:07:53;;;;;;;67.88;33.22;;;;;;;-1.81;67.40;95534.03;4980426;28;20238;-61
2020/12/03 02:10:24;;;;;;;63.47;32.15;;;;;;;-1.89;66.78;95528.91;4990454;28;20233;-65
2020/12/03 02:12:51;;;;;;;60.85;30.40;;;;;;;-2.07;67.19;95523.16;4990845;28;20209;-64
2020/12/03 02:15:19;;;;;;;61.67;32.38;;;;;;;-2.14;68.08;95533.28;4989517;28;20297;-61
2020/12/03 02:17:46;;;;;;;61.70;33.90;;;;;;;-2.10;67.99;95531.22;4990505;28;20225;-62
2020/12/03 02:20:18;;;;;;;65.88;33.72;;;;;;;-1.99;67.26;95527.50;4988998;28;20248;-61
2020/12/03 02:22:46;;;;;;;61.20;30.10;;;;;;;-2.55;68.06;95485.50;4990249;28;20189;-65
2020/12/03 02:25:13;;;;;;;64.38;33.40;;;;;;;-2.35;68.12;95529.59;4990277;28;20206;-67
2020/12/03 02:27:41;;;;;;;61.10;31.35;;;;;;;-2.36;68.44;95535.72;4990614;28;20234;-65
2020/12/03 02:30:10;;;;;;;60.63;32.10;;;;;;;-2.36;68.57;95517.75;4989755;28;20756;-67
2020/12/03 02:32:36;;;;;;;60.70;30.75;;;;;;;-2.38;68.88;95509.41;4990136;28;20198;-67
2020/12/03 02:35:08;;;;;;;64.43;32.92;;;;;;;-2.31;69.11;95511.16;4990048;28;20182;-64
2020/12/03 02:37:35;;;;;;;63.30;30.92;;;;;;;-1.99;68.20;95500.06;4989861;28;20346;-64
2020/12/03 02:40:02;;;;;;;56.00;28.70;;;;;;;-1.91;67.80;95492.31;4994432;28;20214;-65
2020/12/03 02:42:29;;;;;;;47.50;24.17;;;;;;;-1.70;67.41;95500.31;4993721;28;20297;-65
2020/12/03 02:44:56;;;;;;;47.00;25.20;;;;;;;-1.56;67.00;95496.22;4990390;28;20222;-64
2020/12/03 02:47:22;;;;;;;49.13;25.05;;;;;;;-1.59;67.12;95509.41;4990061;28;20305;-63
2020/12/03 02:49:50;;;;;;;58.20;30.95;;;;;;;-1.85;66.89;95501.13;4989881;28;20203;-62
2020/12/03 02:52:19;;;;;;;51.88;27.13;;;;;;;-1.92;67.77;95495.88;4990007;28;20199;-68
2020/12/03 02:54:46;;;;;;;47.95;23.00;;;;;;;-1.67;67.22;95504.28;4989546;28;20209;-67
2020/12/03 02:57:12;;;;;;;56.70;28.90;;;;;;;-1.82;67.30;95501.59;4989911;28;20206;-68
2020/12/03 02:59:39;;;;;;;53.92;29.27;;;;;;;-2.07;68.12;95508.56;4989449;28;20209;-66
2020/12/03 03:02:06;;;;;;;71.72;32.95;;;;;;;-2.29;68.39;95506.66;4989832;28;20210;-65
2020/12/03 03:04:33;;;;;;;73.25;32.70;;;;;;;-2.43;68.24;95506.53;4989346;28;20205;-66
2020/12/03 03:07:00;;;;;;;77.07;34.60;;;;;;;-2.45;68.01;95506.69;4991217;28;20225;-61
2020/12/03 03:09:26;;;;;;;71.88;33.08;;;;;;;-2.36;67.86;95494.66;4991242;28;20186;-66
2020/12/03 03:11:53;;;;;;;58.00;30.35;;;;;;;-2.41;67.94;95481.50;4990138;28;20198;-65
2020/12/03 03:14:20;;;;;;;50.28;24.30;;;;;;;-2.33;68.42;95478.91;4989574;28;20206;-67
2020/12/03 03:16:48;;;;;;;41.33;21.67;;;;;;;-2.02;68.18;95479.81;4989822;28;20277;-64
2020/12/03 03:19:17;;;;;;;44.20;21.88;;;;;;;-1.81;68.13;95477.53;4989209;28;20203;-68
2020/12/03 03:21:44;;;;;;;41.08;21.75;;;;;;;-1.88;67.65;95450.88;4991403;28;20231;-66
2020/12/03 03:24:12;;;;;;;41.72;20.08;;;;;;;-1.58;67.47;95477.59;4971930;28;20602;-63
2020/12/03 03:26:38;;;;;;;43.17;20.73;;;;;;;-1.49;67.29;95479.16;4989784;28;20317;-60
2020/12/03 03:29:05;;;;;;;37.60;18.20;;;;;;;-1.56;67.56;95481.63;4989132;28;20199;-63
2020/12/03 03:31:32;;;;;;;37.08;19.85;;;;;;;-1.39;67.34;95483.16;4990597;28;20252;-67
2020/12/03 03:33:58;;;;;;;34.50;18.70;;;;;;;-1.35;67.16;95484.41;4993148;28;20205;-67
2020/12/03 03:36:24;;;;;;;39.28;19.52;;;;;;;-1.23;66.62;95495.13;4993500;28;20558;-66
2020/12/03 03:38:51;;;;;;;38.42;19.02;;;;;;;-1.17;66.55;95487.50;4992951;28;20685;-64
2020/12/03 03:41:17;;;;;;;34.17;18.13;;;;;;;-1.21;66.71;95481.13;4993868;28;20210;-63
2020/12/03 03:43:44;;;;;;;39.50;20.77;;;;;;;-1.31;67.15;95484.84;4993475;28;20673;-66
2020/12/03 03:46:11;;;;;;;33.42;19.25;;;;;;;-1.40;67.12;95484.09;4993284;28;20206;-67
2020/12/03 03:48:37;;;;;;;36.72;19.65;;;;;;;-1.28;67.22;95490.47;4992758;28;20191;-61
2020/12/03 03:51:04;;;;;;;44.53;22.73;;;;;;;-1.61;66.89;95494.16;4993182;28;20687;-63
2020/12/03 03:53:31;;;;;;;74.78;38.67;;;;;;;-1.75;67.51;95492.25;4992687;28;20194;-66
2020/12/03 03:55:58;;;;;;;61.47;33.55;;;;;;;-1.65;66.90;95492.88;4993158;28;20206;-64
2020/12/03 03:58:24;;;;;;;48.83;25.48;;;;;;;-2.16;67.44;95486.44;4992705;28;20282;-65
2020/12/03 04:00:51;;;;;;;41.97;22.75;;;;;;;-1.96;68.27;95489.44;4992618;28;20211;-66
2020/12/03 04:03:19;;;;;;;45.95;23.25;;;;;;;-1.67;67.53;95489.69;4992392;28;20745;-65
2020/12/03 04:05:49;;;;;;;44.47;24.63;;;;;;;-1.53;67.33;95475.31;4993112;28;20214;-65
2020/12/03 04:08:18;;;;;;;42.80;22.50;;;;;;;-1.67;67.25;95479.41;4992152;28;20210;-65
2020/12/03 04:10:47;;;;;;;40.55;22.05;;;;;;;-1.54;67.19;95492.53;4993061;28;20202;-63
2020/12/03 04:13:13;;;;;;;45.38;23.35;;;;;;;-1.67;67.23;95476.84;4992421;28;20213;-65
2020/12/03 04:15:40;;;;;;;47.53;24.17;;;;;;;-1.77;67.15;95496.75;4992609;28;20743;-65
2020/12/03 04:18:07;;;;;;;38.95;19.98;;;;;;;-1.82;67.84;95506.75;4992214;28;20566;-65
2020/12/03 04:20:34;;;;;;;40.05;19.85;;;;;;;-1.68;67.81;95482.91;4996578;28;20258;-66
2020/12/03 04:23:01;;;;;;;40.78;22.33;;;;;;;-1.83;68.08;95488.94;4994691;28;20198;-63
2020/12/03 04:25:28;;;;;;;75.95;42.83;;;;;;;-1.94;67.82;95494.41;4991884;28;20293;-64
2020/12/03 04:27:54;;;;;;;46.72;24.83;;;;;;;-2.20;68.29;95463.81;4992459;28;20226;-66
2020/12/03 04:30:21;;;;;;;44.60;23.45;;;;;;;-2.11;68.83;95501.34;4991914;28;20278;-67
2020/12/03 04:32:48;;;;;;;48.28;25.10;;;;;;;-2.19;69.30;95509.06;4992046;28;20206;-65
2020/12/03 04:35:17;;;;;;;51.88;26.75;;;;;;;-2.03;69.07;95500.53;4991906;28;20209;-66
2020/12/03 04:37:47;;;;;;;50.17;28.25;;;;;;;-2.32;69.37;95498.50;4992257;28;20202;-61
2020/12/03 04:40:35;;;;;;;51.97;26.63;;;;;;;-2.17;68.89;95494.28;4991903;28;20191;-62
2020/12/03 04:43:17;;;;;;;50.67;25.88;;;;;;;-2.18;68.90;95501.22;4991443;28;20218;-64
2020/12/03 04:45:49;;;;;;;48.10;23.98;;;;;;;-2.00;68.79;95483.03;4992008;28;20189;-65
2020/12/03 04:48:52;;;;;;;44.92;23.75;;;;;;;-2.12;69.17;95489.50;4991275;28;20226;-67
2020/12/03 04:51:43;;;;;;;45.08;23.38;;;;;;;-2.06;69.40;95489.63;4992115;28;20189;-62
2020/12/03 04:54:22;;;;;;;42.95;21.63;;;;;;;-2.10;69.22;95487.56;4991485;28;20210;-68
2020/12/03 04:57:02;;;;;;;46.00;24.58;;;;;;;-2.24;69.72;95493.34;4994849;28;20213;-64
2020/12/03 04:59:50;;;;;;;41.88;20.80;;;;;;;-2.20;70.07;95498.00;4991435;28;20198;-66
2020/12/03 05:02:37;;;;;;;35.53;19.77;;;;;;;-1.92;69.17;95480.47;4991549;28;20199;-66
2020/12/03 05:05:27;;;;;;;207.20;100.82;;;;;;;-1.76;68.22;95482.97;4991354;28;20269;-67
2020/12/03 05:08:20;;;;;;;52.08;26.55;;;;;;;-1.86;68.51;95474.63;4991664;28;20203;-62
2020/12/03 05:10:47;;;;;;;72.25;33.08;;;;;;;-1.71;67.97;95478.13;4991815;28;20202;-69
2020/12/03 05:13:19;;;;;;;57.83;29.38;;;;;;;-1.57;67.93;95479.22;4990824;28;20201;-63
2020/12/03 05:15:49;;;;;;;55.63;29.50;;;;;;;-1.60;67.29;95477.78;4991613;28;20258;-66
2020/12/03 05:18:29;;;;;;;54.38;26.27;;;;;;;-1.73;67.69;95464.66;4986973;28;20214;-68
2020/12/03 05:20:57;;;;;;;92.95;36.40;;;;;;;-1.63;67.65;95475.53;4991279;28;20260;-65
2020/12/03 05:23:26;;;;;;;357.60;122.78;;;;;;;-1.81;68.52;95487.81;4990328;28;20210;-67
2020/12/03 05:25:55;;;;;;;133.00;50.50;;;;;;;-1.73;68.31;95495.47;4991611;28;20226;-67
2020/12/03 05:28:21;;;;;;;387.02;128.77;;;;;;;-1.96;69.03;95486.88;4990744;28;20222;-64
2020/12/03 05:30:49;;;;;;;69.70;30.40;;;;;;;-1.92;69.24;95487.34;4991123;28;20253;-68
2020/12/03 05:33:15;;;;;;;41.97;21.48;;;;;;;-1.82;69.06;95496.47;4990233;28;20191;-65
2020/12/03 05:35:42;;;;;;;44.15;22.15;;;;;;;-2.07;68.97;95471.81;4991077;28;20661;-66
2020/12/03 05:38:26;;;;;;;37.25;18.83;;;;;;;-1.88;69.14;95497.13;4990531;28;20198;-66
2020/12/03 05:41:06;;;;;;;146.95;51.90;;;;;;;-1.74;68.82;95496.44;4991252;28;20213;-65
2020/12/03 05:43:32;;;;;;;65.45;27.77;;;;;;;-1.62;68.52;95499.44;4990251;28;20616;-64
2020/12/03 05:46:02;;;;;;;86.22;34.70;;;;;;;-1.53;68.03;95491.53;4990019;28;20259;-66
2020/12/03 05:48:29;;;;;;;64.53;26.27;;;;;;;-1.66;68.51;95509.25;4990293;28;20245;-66
2020/12/03 05:50:57;;;;;;;50.20;23.45;;;;;;;-1.49;68.06;95503.09;4991375;28;20198;-66
2020/12/03 05:53:26;;;;;;;159.75;58.22;;;;;;;-1.50;67.92;95498.94;4991952;28;20203;-64
2020/12/03 05:56:12;;;;;;;88.25;35.83;;;;;;;-1.44;67.71;95494.91;4997584;28;20233;-67
2020/12/03 05:58:38;;;;;;;115.30;48.65;;;;;;;-1.43;67.28;95481.88;4994433;28;20201;-67
2020/12/03 06:01:06;;;;;;;123.53;49.58;;;;;;;-1.41;67.55;95495.38;4990592;28;20250;-69
2020/12/03 06:03:59;;;;;;;166.43;69.43;;;;;;;-1.34;67.11;95496.28;4990271;28;20280;-67
2020/12/03 06:06:49;;;;;;;97.72;47.10;;;;;;;-1.88;68.05;95488.63;4990298;28;20578;-63
2020/12/03 06:09:39;;;;;;;50.88;26.17;;;;;;;-1.91;68.83;95497.44;4990157;28;20202;-64
2020/12/03 06:12:43;;;;;;;74.55;35.88;;;;;;;-1.52;67.75;95489.78;4977278;28;20905;-62
2020/12/03 06:15:34;;;;;;;103.63;47.55;;;;;;;-1.41;67.50;95500.50;4990086;28;20595;-64
2020/12/03 06:18:26;;;;;;;86.18;41.60;;;;;;;-1.36;67.51;95487.94;4990596;28;20606;-69
2020/12/03 06:21:20;;;;;;;63.88;31.33;;;;;;;-1.18;67.54;95493.63;4955818;28;20660;-67
2020/12/03 06:24:06;;;;;;;51.75;25.20;;;;;;;-1.09;67.15;95492.63;4990229;28;20245;-65
2020/12/03 06:27:05;;;;;;;35.78;19.70;;;;;;;-1.02;67.22;95499.69;4990600;28;20211;-64
2020/12/03 06:29:52;;;;;;;38.78;20.40;;;;;;;-0.84;67.77;95505.34;4967690;28;20306;-64
2020/12/03 06:32:41;;;;;;;42.28;21.65;;;;;;;-0.64;67.34;95504.69;4993478;28;20198;-68
2020/12/03 06:35:13;;;;;;;50.70;24.45;;;;;;;-0.62;67.22;95501.97;4989988;28;20617;-70
2020/12/03 06:37:58;;;;;;;38.00;21.08;;;;;;;-0.58;66.72;95506.59;4990178;28;20264;-68
2020/12/03 06:40:31;;;;;;;42.60;21.60;;;;;;;-0.51;66.83;95504.94;4989922;28;20672;-67
2020/12/03 06:43:28;;;;;;;41.28;21.52;;;;;;;-0.57;67.19;95494.53;4990617;28;20198;-67
2020/12/03 06:46:13;;;;;;;39.95;21.50;;;;;;;-0.44;67.00;95490.41;4991063;28;20218;-65
2020/12/03 06:48:57;;;;;;;42.53;22.45;;;;;;;-0.33;66.72;95507.22;4989564;28;20586;-68
2020/12/03 06:51:41;;;;;;;47.28;24.20;;;;;;;-0.08;66.58;95512.00;4997819;28;20216;-66
2020/12/03 06:54:10;;;;;;;58.40;30.20;;;;;;;0.25;65.62;95502.16;4990787;28;20281;-68
2020/12/03 06:56:37;;;;;;;40.10;21.67;;;;;;;0.29;65.20;95506.00;4990110;28;20196;-67
2020/12/03 06:59:14;;;;;;;42.65;21.50;;;;;;;0.48;65.06;95502.88;4989317;28;20198;-65
2020/12/03 07:01:52;;;;;;;43.30;22.27;;;;;;;0.58;64.72;95498.25;4989753;28;20281;-66
2020/12/03 07:04:43;;;;;;;37.05;20.90;;;;;;;0.65;66.49;95493.16;4989422;28;20197;-63
2020/12/03 07:07:41;;;;;;;36.10;19.83;;;;;;;0.73;65.97;95491.28;4992059;28;20250;-65
2020/12/03 07:10:38;;;;;;;39.90;20.92;;;;;;;1.16;65.78;95501.69;4993151;28;20213;-67
2020/12/03 07:13:13;;;;;;;38.55;20.30;;;;;;;1.61;64.40;95503.91;4990813;28;20222;-66
2020/12/03 07:15:59;;;;;;;43.55;23.55;;;;;;;1.72;64.02;95495.66;4993420;28;20226;-65
2020/12/03 07:18:53;;;;;;;42.85;24.33;;;;;;;1.83;62.94;95502.91;4990917;28;20222;-68
2020/12/03 07:21:36;;;;;;;44.55;25.08;;;;;;;1.74;62.21;95498.84;4992978;28;20234;-65
2020/12/03 07:24:16;;;;;;;52.05;27.98;;;;;;;1.76;62.33;95504.63;4993430;28;20194;-68
2020/12/03 07:27:11;;;;;;;80.63;48.50;;;;;;;1.86;62.28;95510.31;4992982;28;20237;-67
2020/12/03 07:29:59;;;;;;;48.85;27.25;;;;;;;1.96;61.48;95500.44;4992800;28;20203;-69
2020/12/03 07:32:25;;;;;;;47.88;26.48;;;;;;;1.90;60.04;95501.97;4992804;28;20278;-66
2020/12/03 07:35:05;;;;;;;89.07;51.65;;;;;;;1.96;59.75;95501.25;4992524;28;20206;-69
2020/12/03 07:38:30;;;;;;;345.38;197.63;;;;;;;2.12;60.42;95494.97;4992757;28;20194;-70
2020/12/03 07:40:58;;;;;;;52.17;29.80;;;;;;;2.13;60.30;95495.78;4970902;28;20221;-66
2020/12/03 07:43:37;;;;;;;50.05;27.92;;;;;;;2.24;60.16;95482.34;4992704;28;20189;-72
2020/12/03 07:46:29;;;;;;;48.22;28.10;;;;;;;2.31;60.12;95475.41;4992906;28;20206;-70
2020/12/03 07:48:56;;;;;;;47.08;27.60;;;;;;;2.23;59.83;95486.69;4991981;28;20234;-66
2020/12/03 07:51:23;;;;;;;50.17;28.02;;;;;;;2.31;60.36;95494.31;4993104;28;20191;-63
2020/12/03 07:54:20;;;;;;;51.28;28.08;;;;;;;2.58;59.53;95496.06;4994335;28;20619;-66
2020/12/03 07:56:48;;;;;;;50.45;27.67;;;;;;;2.57;59.81;95491.88;4994558;28;20234;-64
2020/12/03 07:59:23;;;;;;;48.78;27.33;;;;;;;2.75;59.37;95488.78;4992644;28;20581;-68
2020/12/03 08:01:54;;;;;;;49.70;26.52;;;;;;;3.04;57.65;95496.25;4992154;28;20201;-67
2020/12/03 08:04:28;;;;;;;46.95;27.75;;;;;;;2.82;57.74;95498.16;4991991;28;20187;-65
2020/12/03 08:07:04;;;;;;;45.20;25.75;;;;;;;2.88;58.60;95502.56;4992549;28;20732;-64
2020/12/03 08:09:36;;;;;;;46.70;26.20;;;;;;;2.96;58.26;95499.81;4992725;28;20682;-66
2020/12/03 08:12:05;;;;;;;48.47;26.77;;;;;;;3.04;57.84;95498.84;4993720;28;20210;-65
2020/12/03 08:14:56;;;;;;;141.35;80.47;;;;;;;3.33;57.92;95500.31;4987401;28;20278;-63
2020/12/03 08:17:23;;;;;;;84.22;51.70;;;;;;;3.46;57.23;95490.00;4991756;28;20215;-71
2020/12/03 08:20:02;;;;;;;45.80;27.08;;;;;;;3.53;56.92;95485.59;4991119;28;20259;-65
2020/12/03 08:22:32;;;;;;;45.80;27.25;;;;;;;3.63;57.31;95483.44;4992107;28;20208;-67
2020/12/03 08:25:01;;;;;;;48.05;26.48;;;;;;;3.93;57.06;95487.22;4991412;28;20206;-63
2020/12/03 08:27:28;;;;;;;43.65;24.88;;;;;;;3.90;58.14;95503.19;4991583;28;20223;-61
2020/12/03 08:29:54;;;;;;;40.28;24.08;;;;;;;4.23;55.91;95488.41;4991508;28;20187;-66
2020/12/03 08:32:20;;;;;;;39.78;24.70;;;;;;;4.43;55.68;95494.38;4991910;28;20249;-67
2020/12/03 08:34:47;;;;;;;46.92;24.23;;;;;;;4.50;55.53;95479.59;4991067;28;20289;-66
2020/12/03 08:37:20;;;;;;;43.25;24.23;;;;;;;5.08;54.27;95488.97;4991722;28;20210;-63
2020/12/03 08:39:56;;;;;;;42.83;25.38;;;;;;;5.39;53.67;95484.81;4991193;28;20199;-65
2020/12/03 08:42:23;;;;;;;46.13;24.17;;;;;;;5.51;53.50;95485.75;4991529;28;20313;-67
2020/12/03 08:44:52;;;;;;;41.90;24.00;;;;;;;5.40;53.26;95481.22;4991308;28;20229;-65
2020/12/03 08:47:54;;;;;;;43.53;24.35;;;;;;;5.40;53.71;95486.41;4991718;28;20363;-69
2020/12/03 08:50:21;;;;;;;43.13;24.83;;;;;;;5.70;52.82;95471.81;4930578;29;20294;-67
2020/12/03 08:52:47;;;;;;;40.05;23.58;;;;;;;5.78;52.88;95474.97;4979354;28;20233;-63
2020/12/03 08:55:14;;;;;;;39.30;24.27;;;;;;;6.07;52.46;95478.75;4991101;28;20183;-63
2020/12/03 08:57:43;;;;;;;42.50;26.15;;;;;;;6.21;51.74;95469.81;4990812;28;20198;-66
2020/12/03 09:00:17;;;;;;;38.70;23.15;;;;;;;6.31;51.65;95459.75;4990706;28;20301;-65
2020/12/03 09:02:46;;;;;;;38.10;23.55;;;;;;;6.66;51.29;95467.78;4991473;28;20308;-63
2020/12/03 09:05:15;;;;;;;37.90;23.25;;;;;;;6.79;50.83;95462.41;4992698;28;20632;-68
2020/12/03 09:07:48;;;;;;;35.80;21.75;;;;;;;6.85;51.70;95456.34;4997369;28;20297;-63
2020/12/03 09:10:20;;;;;;;36.47;22.70;;;;;;;6.81;51.46;95461.19;4997416;28;20282;-70
2020/12/03 09:12:47;;;;;;;103.68;61.28;;;;;;;7.32;51.37;95467.81;4991031;28;20194;-66
2020/12/03 09:15:16;;;;;;;40.10;25.10;;;;;;;7.35;49.57;95468.16;4990345;28;20216;-63
2020/12/03 09:17:54;;;;;;;38.83;24.58;;;;;;;7.48;48.40;95467.19;4990876;28;21036;-64
2020/12/03 09:20:21;;;;;;;35.10;21.80;;;;;;;7.67;48.41;95466.09;4989908;28;20242;-67
2020/12/03 09:22:47;;;;;;;33.30;20.90;;;;;;;7.89;48.17;95461.94;4991233;28;20449;-64
2020/12/03 09:25:14;;;;;;;32.13;20.60;;;;;;;7.75;48.43;95455.34;4991217;28;20448;-65
2020/12/03 09:27:42;;;;;;;44.38;22.45;;;;;;;7.88;48.88;95453.31;4989952;28;20735;-65
2020/12/03 09:30:29;;;;;;;33.42;20.38;;;;;;;7.16;49.03;95443.13;4989495;28;20202;-66
2020/12/03 09:33:01;;;;;;;31.65;19.85;;;;;;;7.57;49.92;95450.19;4990469;28;20210;-64
2020/12/03 09:35:30;;;;;;;32.17;19.70;;;;;;;7.55;49.59;95449.63;4990071;28;20297;-65
2020/12/03 09:38:04;;;;;;;30.13;19.52;;;;;;;7.76;48.95;95438.66;4990183;28;20667;-64
2020/12/03 09:40:33;;;;;;;31.15;19.13;;;;;;;7.83;49.81;95444.56;4989996;28;20333;-66
2020/12/03 09:43:01;;;;;;;28.80;18.63;;;;;;;8.20;49.13;95438.13;4989831;28;20645;-64
2020/12/03 09:45:48;;;;;;;30.53;19.47;;;;;;;8.22;48.83;95433.50;4990200;28;21299;-62
2020/12/03 09:48:17;;;;;;;32.50;19.88;;;;;;;8.07;47.60;95420.09;4990019;28;20486;-64
2020/12/03 09:50:46;;;;;;;32.17;20.45;;;;;;;8.35;47.77;95422.03;4990385;28;20195;-62
2020/12/03 09:53:15;;;;;;;36.20;22.23;;;;;;;8.41;47.59;95405.47;4989301;28;20234;-66
2020/12/03 09:55:43;;;;;;;37.55;23.55;;;;;;;8.38;47.67;95422.38;4990219;28;20195;-62
2020/12/03 09:58:10;;;;;;;37.60;22.98;;;;;;;8.37;47.46;95423.41;4989186;28;20207;-64
2020/12/03 10:00:39;;;;;;;46.97;29.30;;;;;;;8.29;48.15;95423.75;4990342;28;20630;-62
2020/12/03 10:03:14;;;;;;;98.20;63.57;;;;;;;8.36;49.11;95419.19;4989634;28;20426;-64
2020/12/03 10:06:04;;;;;;;36.97;23.43;;;;;;;8.62;48.23;95408.28;4989978;28;20445;-64
2020/12/03 10:08:33;;;;;;;38.45;23.98;;;;;;;8.48;47.72;95406.94;4989424;28;20565;-61
2020/12/03 10:11:32;;;;;;;36.57;23.27;;;;;;;8.45;48.02;95398.78;4989926;28;20199;-62
2020/12/03 10:14:35;;;;;;;38.73;23.30;;;;;;;8.31;48.38;95406.03;4989428;28;20533;-65
2020/12/03 10:17:05;;;;;;;40.78;24.52;;;;;;;7.92;48.92;95386.59;4990011;28;20530;-64
2020/12/03 10:19:37;;;;;;;41.53;24.63;;;;;;;7.70;49.81;95376.97;4988877;28;20292;-67
2020/12/03 10:22:05;;;;;;;42.85;25.20;;;;;;;7.74;49.37;95391.13;4989617;28;20297;-67
2020/12/03 10:24:54;;;;;;;40.47;24.60;;;;;;;7.58;48.92;95397.00;4989515;28;20191;-63
2020/12/03 10:27:30;;;;;;;35.53;22.60;;;;;;;7.66;49.67;95387.06;4989239;28;20485;-64
2020/12/03 10:30:07;;;;;;;39.93;24.63;;;;;;;7.57;49.60;95392.81;4989494;28;20476;-62
2020/12/03 10:32:44;;;;;;;33.67;21.00;;;;;;;7.70;48.70;95392.63;4989653;28;20450;-62
2020/12/03 10:35:11;;;;;;;36.50;22.40;;;;;;;7.62;50.19;95379.91;4989268;28;20648;-64
2020/12/03 10:37:46;;;;;;;34.28;21.00;;;;;;;7.40;50.56;95376.22;4989355;28;20204;-63
2020/12/03 10:40:18;;;;;;;31.45;19.30;;;;;;;7.31;50.83;95373.16;4988845;28;20268;-67
2020/12/03 10:42:53;;;;;;;30.83;19.25;;;;;;;7.59;50.94;95364.72;4988725;28;20229;-63
2020/12/03 10:45:29;;;;;;;31.25;19.67;;;;;;;7.60;50.32;95355.84;4988725;28;20256;-65
2020/12/03 10:48:00;;;;;;;28.63;18.42;;;;;;;7.84;49.77;95363.50;4989379;28;20321;-63
2020/12/03 10:50:46;;;;;;;28.93;18.53;;;;;;;7.76;50.46;95357.78;4988890;28;20215;-65
2020/12/03 10:53:15;;;;;;;35.07;22.90;;;;;;;7.57;51.03;95356.31;4988874;28;20433;-68
2020/12/03 10:55:42;;;;;;;52.15;36.25;;;;;;;7.52;51.85;95362.19;4989266;28;20441;-66
2020/12/03 10:58:15;;;;;;;30.48;17.65;;;;;;;7.60;51.57;95358.47;4988322;28;20241;-66
2020/12/03 11:00:42;;;;;;;29.85;18.98;;;;;;;7.07;51.60;95356.66;4989240;28;20190;-63
2020/12/03 11:03:17;;;;;;;28.40;18.90;;;;;;;7.22;51.07;95349.19;4989043;28;20221;-66
2020/12/03 11:05:45;;;;;;;29.92;17.90;;;;;;;6.87;51.15;95324.09;4989251;28;20204;-68
2020/12/03 11:08:11;;;;;;;32.35;20.40;;;;;;;7.29;52.21;95337.91;4988497;28;20577;-64
2020/12/03 11:10:40;;;;;;;36.95;21.42;;;;;;;7.02;51.62;95330.50;4989083;28;20324;-62
2020/12/03 11:13:08;;;;;;;34.95;22.13;;;;;;;6.72;52.64;95345.31;4988961;28;20282;-65
2020/12/03 11:15:34;;;;;;;32.65;21.05;;;;;;;6.59;52.75;95332.47;4989543;28;20217;-64
2020/12/03 11:18:09;;;;;;;33.70;20.85;;;;;;;6.55;53.66;95341.72;4988756;28;20178;-63
2020/12/03 11:21:02;;;;;;;35.85;21.17;;;;;;;6.65;53.58;95338.59;4971127;28;20235;-63
2020/12/03 11:23:44;;;;;;;32.30;19.70;;;;;;;7.06;52.82;95328.22;4988637;28;20206;-62
2020/12/03 11:26:11;;;;;;;30.50;18.48;;;;;;;7.51;53.01;95316.28;4988375;28;20693;-66
2020/12/03 11:28:39;;;;;;;26.45;16.98;;;;;;;7.92;51.05;95313.56;4988198;28;20222;-67
2020/12/03 11:31:31;;;;;;;300.67;209.13;;;;;;;8.45;50.96;95302.91;4991777;28;20207;-65
2020/12/03 11:33:58;;;;;;;39.67;24.00;;;;;;;9.47;47.90;95301.06;4989271;28;20202;-66
2020/12/03 11:36:34;;;;;;;24.35;15.93;;;;;;;10.30;45.85;95296.50;4988845;28;20194;-67
2020/12/03 11:39:03;;;;;;;27.03;16.40;;;;;;;10.24;45.26;95286.22;4988556;28;20206;-68
2020/12/03 11:47:32;;;;;;;24.40;16.00;;;;;;;10.88;42.51;95283.53;4989155;28;20819;-66
2020/12/03 11:49:54;;;;;;;21.43;14.43;;;;;;;10.33;42.12;95254.09;4988286;28;20959;-64
2020/12/03 11:52:21;;;;;;;27.13;16.33;;;;;;;10.01;43.03;95276.72;4989656;28;20465;-65